sensor_id;sensor_type;location;lat;lon;timestamp;P1;durP1;ratioP1;P2;durP2;ratioP2
9449;SDS011;4763;48.370;10.874;2022-11-14T00:01:54;24.90;;;7.87;;
9449;SDS011;4763;48.370;10.874;2022-11-14T00:04:44;9.87;;;7.43;;
9449;SDS011;4763;48.370;10.874;2022-11-14T00:07:33;15.40;;;7.63;;
9449;SDS011;4763;48.370;10.874;2022-11-14T00:10:20;13.80;;;6.97;;
9449;SDS011;4763;48.370;10.874;2022-11-14T00:13:07;13.10;;;9.13;;
9449;SDS011;4763;48.370;10.874;2022-11-14T00:15:54;15.60;;;7.77;;
9449;SDS011;4763;48.370;10.874;2022-11-14T00:18:42;18.30;;;10.77;;
9449;SDS011;4763;48.370;10.874;2022-11-14T00:21:29;12.93;;;8.63;;
9449;SDS011;4763;48.370;10.874;2022-11-14T00:24:17;12.40;;;8.23;;
9449;SDS011;4763;48.370;10.874;2022-11-14T00:27:04;14.70;;;8.87;;
9449;SDS011;4763;48.370;10.874;2022-11-14T00:29:51;14.37;;;8.93;;
9449;SDS011;4763;48.370;10.874;2022-11-14T00:32:39;14.73;;;8.97;;
9449;SDS011;4763;48.370;10.874;2022-11-14T00:35:26;14.17;;;9.50;;
9449;SDS011;4763;48.370;10.874;2022-11-14T00:38:13;11.70;;;8.33;;
9449;SDS011;4763;48.370;10.874;2022-11-14T00:41:01;17.50;;;9.63;;
9449;SDS011;4763;48.370;10.874;2022-11-14T00:43:49;31.73;;;13.53;;
9449;SDS011;4763;48.370;10.874;2022-11-14T00:46:36;12.20;;;8.83;;
9449;SDS011;4763;48.370;10.874;2022-11-14T00:49:23;14.87;;;9.43;;
9449;SDS011;4763;48.370;10.874;2022-11-14T00:52:11;15.00;;;9.87;;
9449;SDS011;4763;48.370;10.874;2022-11-14T00:54:58;14.57;;;9.37;;
9449;SDS011;4763;48.370;10.874;2022-11-14T00:57:46;14.50;;;9.73;;
9449;SDS011;4763;48.370;10.874;2022-11-14T01:00:33;12.23;;;8.47;;
9449;SDS011;4763;48.370;10.874;2022-11-14T01:03:21;11.70;;;8.17;;
9449;SDS011;4763;48.370;10.874;2022-11-14T01:06:08;13.53;;;9.43;;
9449;SDS011;4763;48.370;10.874;2022-11-14T01:08:58;15.87;;;10.03;;
9449;SDS011;4763;48.370;10.874;2022-11-14T01:11:45;13.40;;;8.77;;
9449;SDS011;4763;48.370;10.874;2022-11-14T01:14:34;26.90;;;14.10;;
9449;SDS011;4763;48.370;10.874;2022-11-14T01:17:21;33.30;;;15.73;;
9449;SDS011;4763;48.370;10.874;2022-11-14T01:20:08;47.70;;;19.83;;
9449;SDS011;4763;48.370;10.874;2022-11-14T01:22:56;28.17;;;14.27;;
9449;SDS011;4763;48.370;10.874;2022-11-14T01:25:43;19.33;;;10.27;;
9449;SDS011;4763;48.370;10.874;2022-11-14T01:28:30;15.53;;;9.03;;
9449;SDS011;4763;48.370;10.874;2022-11-14T01:31:20;17.00;;;9.73;;
9449;SDS011;4763;48.370;10.874;2022-11-14T01:34:08;14.47;;;9.40;;
9449;SDS011;4763;48.370;10.874;2022-11-14T01:36:55;13.63;;;8.80;;
9449;SDS011;4763;48.370;10.874;2022-11-14T01:39:42;14.07;;;9.20;;
9449;SDS011;4763;48.370;10.874;2022-11-14T01:42:29;16.77;;;9.97;;
9449;SDS011;4763;48.370;10.874;2022-11-14T01:48:36;13.70;;;9.07;;
9449;SDS011;4763;48.370;10.874;2022-11-14T01:51:28;13.77;;;8.63;;
9449;SDS011;4763;48.370;10.874;2022-11-14T01:54:19;13.10;;;8.67;;
9449;SDS011;4763;48.370;10.874;2022-11-14T01:57:09;14.40;;;8.97;;
9449;SDS011;4763;48.370;10.874;2022-11-14T01:59:59;15.10;;;9.37;;
9449;SDS011;4763;48.370;10.874;2022-11-14T02:02:49;14.37;;;9.20;;
9449;SDS011;4763;48.370;10.874;2022-11-14T02:05:38;12.90;;;9.03;;
9449;SDS011;4763;48.370;10.874;2022-11-14T02:08:26;11.80;;;8.23;;
9449;SDS011;4763;48.370;10.874;2022-11-14T02:11:14;13.03;;;8.97;;
9449;SDS011;4763;48.370;10.874;2022-11-14T02:14:04;13.97;;;8.80;;
9449;SDS011;4763;48.370;10.874;2022-11-14T02:16:52;11.97;;;8.17;;
9449;SDS011;4763;48.370;10.874;2022-11-14T02:19:41;14.53;;;9.20;;
9449;SDS011;4763;48.370;10.874;2022-11-14T02:22:31;11.57;;;8.43;;
9449;SDS011;4763;48.370;10.874;2022-11-14T02:25:18;13.63;;;8.57;;
9449;SDS011;4763;48.370;10.874;2022-11-14T02:28:06;11.80;;;8.33;;
9449;SDS011;4763;48.370;10.874;2022-11-14T02:30:54;14.10;;;8.53;;
9449;SDS011;4763;48.370;10.874;2022-11-14T02:33:41;11.60;;;7.67;;
9449;SDS011;4763;48.370;10.874;2022-11-14T02:36:29;15.33;;;8.97;;
9449;SDS011;4763;48.370;10.874;2022-11-14T02:39:17;10.30;;;7.57;;
9449;SDS011;4763;48.370;10.874;2022-11-14T02:42:04;13.00;;;8.17;;
9449;SDS011;4763;48.370;10.874;2022-11-14T02:44:51;12.27;;;7.90;;
9449;SDS011;4763;48.370;10.874;2022-11-14T02:47:39;11.47;;;7.97;;
9449;SDS011;4763;48.370;10.874;2022-11-14T02:50:26;10.97;;;7.53;;
9449;SDS011;4763;48.370;10.874;2022-11-14T02:53:13;11.00;;;7.57;;
9449;SDS011;4763;48.370;10.874;2022-11-14T02:56:01;12.30;;;7.63;;
9449;SDS011;4763;48.370;10.874;2022-11-14T02:58:48;10.80;;;7.83;;
9449;SDS011;4763;48.370;10.874;2022-11-14T03:01:35;11.23;;;7.73;;
9449;SDS011;4763;48.370;10.874;2022-11-14T03:04:22;11.73;;;7.97;;
9449;SDS011;4763;48.370;10.874;2022-11-14T03:07:10;13.53;;;8.47;;
9449;SDS011;4763;48.370;10.874;2022-11-14T03:09:57;10.70;;;7.60;;
9449;SDS011;4763;48.370;10.874;2022-11-14T03:12:45;12.40;;;8.63;;
9449;SDS011;4763;48.370;10.874;2022-11-14T03:15:35;10.67;;;7.70;;
9449;SDS011;4763;48.370;10.874;2022-11-14T03:18:22;12.60;;;7.47;;
9449;SDS011;4763;48.370;10.874;2022-11-14T03:21:10;10.90;;;7.83;;
9449;SDS011;4763;48.370;10.874;2022-11-14T03:23:59;10.70;;;7.67;;
9449;SDS011;4763;48.370;10.874;2022-11-14T03:26:46;11.03;;;7.50;;
9449;SDS011;4763;48.370;10.874;2022-11-14T03:29:34;11.33;;;7.97;;
9449;SDS011;4763;48.370;10.874;2022-11-14T03:32:21;11.53;;;8.00;;
9449;SDS011;4763;48.370;10.874;2022-11-14T03:35:08;13.50;;;7.60;;
9449;SDS011;4763;48.370;10.874;2022-11-14T03:37:56;12.47;;;7.80;;
9449;SDS011;4763;48.370;10.874;2022-11-14T03:40:43;10.77;;;7.37;;
9449;SDS011;4763;48.370;10.874;2022-11-14T03:43:31;11.43;;;7.53;;
9449;SDS011;4763;48.370;10.874;2022-11-14T03:46:20;13.77;;;8.87;;
9449;SDS011;4763;48.370;10.874;2022-11-14T03:49:07;10.93;;;7.70;;
9449;SDS011;4763;48.370;10.874;2022-11-14T03:51:55;11.10;;;7.53;;
9449;SDS011;4763;48.370;10.874;2022-11-14T03:54:42;13.37;;;8.10;;
9449;SDS011;4763;48.370;10.874;2022-11-14T03:57:29;10.07;;;7.37;;
9449;SDS011;4763;48.370;10.874;2022-11-14T04:00:16;11.00;;;7.80;;
9449;SDS011;4763;48.370;10.874;2022-11-14T04:03:05;13.07;;;8.30;;
9449;SDS011;4763;48.370;10.874;2022-11-14T04:05:52;14.77;;;8.90;;
9449;SDS011;4763;48.370;10.874;2022-11-14T04:08:39;12.13;;;8.10;;
9449;SDS011;4763;48.370;10.874;2022-11-14T04:11:26;10.70;;;7.63;;
9449;SDS011;4763;48.370;10.874;2022-11-14T04:14:13;11.70;;;7.77;;
9449;SDS011;4763;48.370;10.874;2022-11-14T04:17:00;15.37;;;8.97;;
9449;SDS011;4763;48.370;10.874;2022-11-14T04:19:50;11.50;;;7.83;;
9449;SDS011;4763;48.370;10.874;2022-11-14T04:22:37;16.30;;;9.00;;
9449;SDS011;4763;48.370;10.874;2022-11-14T04:25:24;10.77;;;7.53;;
9449;SDS011;4763;48.370;10.874;2022-11-14T04:28:12;12.07;;;8.17;;
9449;SDS011;4763;48.370;10.874;2022-11-14T04:30:59;12.37;;;7.70;;
9449;SDS011;4763;48.370;10.874;2022-11-14T04:33:46;17.00;;;10.47;;
9449;SDS011;4763;48.370;10.874;2022-11-14T04:36:35;15.73;;;11.47;;
9449;SDS011;4763;48.370;10.874;2022-11-14T04:39:22;14.27;;;8.93;;
9449;SDS011;4763;48.370;10.874;2022-11-14T04:42:09;11.90;;;7.83;;
9449;SDS011;4763;48.370;10.874;2022-11-14T04:44:56;9.87;;;7.50;;
9449;SDS011;4763;48.370;10.874;2022-11-14T04:47:43;10.07;;;6.93;;
9449;SDS011;4763;48.370;10.874;2022-11-14T04:50:30;12.07;;;7.80;;
9449;SDS011;4763;48.370;10.874;2022-11-14T04:53:19;12.40;;;8.17;;
9449;SDS011;4763;48.370;10.874;2022-11-14T04:56:06;15.03;;;8.67;;
9449;SDS011;4763;48.370;10.874;2022-11-14T04:58:53;11.40;;;8.03;;
9449;SDS011;4763;48.370;10.874;2022-11-14T05:01:41;11.93;;;8.77;;
9449;SDS011;4763;48.370;10.874;2022-11-14T05:04:28;11.00;;;7.60;;
9449;SDS011;4763;48.370;10.874;2022-11-14T05:07:15;12.13;;;8.77;;
9449;SDS011;4763;48.370;10.874;2022-11-14T05:10:04;11.27;;;7.50;;
9449;SDS011;4763;48.370;10.874;2022-11-14T05:12:52;11.13;;;7.53;;
9449;SDS011;4763;48.370;10.874;2022-11-14T05:15:39;10.33;;;7.67;;
9449;SDS011;4763;48.370;10.874;2022-11-14T05:18:26;9.53;;;7.30;;
9449;SDS011;4763;48.370;10.874;2022-11-14T05:21:14;13.20;;;7.97;;
9449;SDS011;4763;48.370;10.874;2022-11-14T05:24:01;15.13;;;8.50;;
9449;SDS011;4763;48.370;10.874;2022-11-14T05:26:50;12.00;;;8.40;;
9449;SDS011;4763;48.370;10.874;2022-11-14T05:29:37;9.63;;;7.50;;
9449;SDS011;4763;48.370;10.874;2022-11-14T05:32:24;8.93;;;6.77;;
9449;SDS011;4763;48.370;10.874;2022-11-14T05:35:11;11.40;;;7.63;;
9449;SDS011;4763;48.370;10.874;2022-11-14T05:38:01;10.30;;;7.27;;
9449;SDS011;4763;48.370;10.874;2022-11-14T05:40:48;10.30;;;6.37;;
9449;SDS011;4763;48.370;10.874;2022-11-14T05:43:36;7.83;;;6.47;;
9449;SDS011;4763;48.370;10.874;2022-11-14T05:46:23;10.20;;;7.20;;
9449;SDS011;4763;48.370;10.874;2022-11-14T05:49:10;8.70;;;6.97;;
9449;SDS011;4763;48.370;10.874;2022-11-14T05:51:58;9.83;;;7.17;;
9449;SDS011;4763;48.370;10.874;2022-11-14T05:54:45;11.43;;;8.30;;
9449;SDS011;4763;48.370;10.874;2022-11-14T05:57:32;10.77;;;7.53;;
9449;SDS011;4763;48.370;10.874;2022-11-14T06:00:21;9.60;;;6.63;;
9449;SDS011;4763;48.370;10.874;2022-11-14T06:03:08;9.90;;;6.47;;
9449;SDS011;4763;48.370;10.874;2022-11-14T06:05:55;10.23;;;6.63;;
9449;SDS011;4763;48.370;10.874;2022-11-14T06:08:44;9.97;;;7.07;;
9449;SDS011;4763;48.370;10.874;2022-11-14T06:11:32;8.47;;;6.40;;
9449;SDS011;4763;48.370;10.874;2022-11-14T06:14:19;8.60;;;6.73;;
9449;SDS011;4763;48.370;10.874;2022-11-14T06:17:07;8.10;;;6.20;;
9449;SDS011;4763;48.370;10.874;2022-11-14T06:19:55;8.73;;;5.90;;
9449;SDS011;4763;48.370;10.874;2022-11-14T06:22:42;6.50;;;5.60;;
9449;SDS011;4763;48.370;10.874;2022-11-14T06:25:29;6.40;;;5.27;;
9449;SDS011;4763;48.370;10.874;2022-11-14T06:28:16;6.27;;;4.87;;
9449;SDS011;4763;48.370;10.874;2022-11-14T06:31:03;6.00;;;4.83;;
9449;SDS011;4763;48.370;10.874;2022-11-14T06:33:52;5.83;;;4.70;;
9449;SDS011;4763;48.370;10.874;2022-11-14T06:36:39;6.60;;;5.00;;
9449;SDS011;4763;48.370;10.874;2022-11-14T06:39:26;6.80;;;4.63;;
9449;SDS011;4763;48.370;10.874;2022-11-14T06:42:14;5.83;;;4.43;;
9449;SDS011;4763;48.370;10.874;2022-11-14T06:45:01;6.50;;;4.97;;
9449;SDS011;4763;48.370;10.874;2022-11-14T06:47:48;5.57;;;4.63;;
9449;SDS011;4763;48.370;10.874;2022-11-14T06:50:37;6.03;;;5.00;;
9449;SDS011;4763;48.370;10.874;2022-11-14T06:53:25;4.93;;;4.33;;
9449;SDS011;4763;48.370;10.874;2022-11-14T06:56:14;7.63;;;4.67;;
9449;SDS011;4763;48.370;10.874;2022-11-14T06:59:04;5.57;;;5.03;;
9449;SDS011;4763;48.370;10.874;2022-11-14T07:01:51;7.00;;;4.80;;
9449;SDS011;4763;48.370;10.874;2022-11-14T07:04:38;6.47;;;4.60;;
9449;SDS011;4763;48.370;10.874;2022-11-14T07:07:27;5.27;;;4.40;;
9449;SDS011;4763;48.370;10.874;2022-11-14T07:10:14;6.20;;;4.60;;
9449;SDS011;4763;48.370;10.874;2022-11-14T07:13:01;6.80;;;5.13;;
9449;SDS011;4763;48.370;10.874;2022-11-14T07:15:48;5.53;;;4.70;;
9449;SDS011;4763;48.370;10.874;2022-11-14T07:18:36;8.27;;;5.17;;
9449;SDS011;4763;48.370;10.874;2022-11-14T07:21:23;6.50;;;4.60;;
9449;SDS011;4763;48.370;10.874;2022-11-14T07:24:13;7.10;;;4.87;;
9449;SDS011;4763;48.370;10.874;2022-11-14T07:27:00;5.00;;;4.50;;
9449;SDS011;4763;48.370;10.874;2022-11-14T07:29:52;8.13;;;4.43;;
9449;SDS011;4763;48.370;10.874;2022-11-14T07:32:39;6.33;;;4.30;;
9449;SDS011;4763;48.370;10.874;2022-11-14T07:35:27;6.77;;;4.63;;
9449;SDS011;4763;48.370;10.874;2022-11-14T07:38:14;5.70;;;4.63;;
9449;SDS011;4763;48.370;10.874;2022-11-14T07:41:03;7.97;;;4.17;;
9449;SDS011;4763;48.370;10.874;2022-11-14T07:43:52;5.17;;;4.37;;
9449;SDS011;4763;48.370;10.874;2022-11-14T07:46:39;6.80;;;4.50;;
9449;SDS011;4763;48.370;10.874;2022-11-14T07:49:26;7.57;;;4.37;;
9449;SDS011;4763;48.370;10.874;2022-11-14T07:52:13;6.20;;;4.63;;
9449;SDS011;4763;48.370;10.874;2022-11-14T07:55:00;6.47;;;5.13;;
9449;SDS011;4763;48.370;10.874;2022-11-14T07:57:50;5.67;;;4.87;;
9449;SDS011;4763;48.370;10.874;2022-11-14T08:00:38;6.57;;;4.80;;
9449;SDS011;4763;48.370;10.874;2022-11-14T08:03:25;5.63;;;4.47;;
9449;SDS011;4763;48.370;10.874;2022-11-14T08:06:12;7.17;;;5.13;;
9449;SDS011;4763;48.370;10.874;2022-11-14T08:09:01;6.13;;;5.07;;
9449;SDS011;4763;48.370;10.874;2022-11-14T08:11:48;7.00;;;5.40;;
9449;SDS011;4763;48.370;10.874;2022-11-14T08:14:36;7.17;;;5.60;;
9449;SDS011;4763;48.370;10.874;2022-11-14T08:17:23;6.30;;;5.60;;
9449;SDS011;4763;48.370;10.874;2022-11-14T08:20:10;9.77;;;5.97;;
9449;SDS011;4763;48.370;10.874;2022-11-14T08:23:01;7.73;;;5.20;;
9449;SDS011;4763;48.370;10.874;2022-11-14T08:25:49;7.90;;;5.33;;
9449;SDS011;4763;48.370;10.874;2022-11-14T08:28:36;7.00;;;5.50;;
9449;SDS011;4763;48.370;10.874;2022-11-14T08:31:25;7.37;;;5.73;;
9449;SDS011;4763;48.370;10.874;2022-11-14T08:34:12;10.40;;;6.20;;
9449;SDS011;4763;48.370;10.874;2022-11-14T08:36:59;8.00;;;5.80;;
9449;SDS011;4763;48.370;10.874;2022-11-14T08:39:47;8.03;;;6.23;;
9449;SDS011;4763;48.370;10.874;2022-11-14T08:42:34;7.93;;;5.87;;
9449;SDS011;4763;48.370;10.874;2022-11-14T08:45:21;7.27;;;5.67;;
9449;SDS011;4763;48.370;10.874;2022-11-14T08:48:09;9.57;;;6.10;;
9449;SDS011;4763;48.370;10.874;2022-11-14T08:50:56;8.53;;;5.80;;
9449;SDS011;4763;48.370;10.874;2022-11-14T08:53:47;9.53;;;6.40;;
9449;SDS011;4763;48.370;10.874;2022-11-14T08:56:36;8.43;;;5.83;;
9449;SDS011;4763;48.370;10.874;2022-11-14T08:59:24;8.60;;;5.17;;
9449;SDS011;4763;48.370;10.874;2022-11-14T09:02:11;6.40;;;4.80;;
9449;SDS011;4763;48.370;10.874;2022-11-14T09:05:00;6.30;;;5.33;;
9449;SDS011;4763;48.370;10.874;2022-11-14T09:07:47;5.87;;;4.90;;
9449;SDS011;4763;48.370;10.874;2022-11-14T09:10:34;6.80;;;5.13;;
9449;SDS011;4763;48.370;10.874;2022-11-14T09:13:23;6.20;;;5.53;;
9449;SDS011;4763;48.370;10.874;2022-11-14T09:16:11;6.97;;;5.00;;
9449;SDS011;4763;48.370;10.874;2022-11-14T09:18:58;7.60;;;5.70;;
9449;SDS011;4763;48.370;10.874;2022-11-14T09:21:47;7.13;;;5.47;;
9449;SDS011;4763;48.370;10.874;2022-11-14T09:24:34;5.33;;;4.53;;
9449;SDS011;4763;48.370;10.874;2022-11-14T09:27:21;5.60;;;4.97;;
9449;SDS011;4763;48.370;10.874;2022-11-14T09:30:09;7.07;;;5.57;;
9449;SDS011;4763;48.370;10.874;2022-11-14T09:32:58;12.23;;;6.30;;
9449;SDS011;4763;48.370;10.874;2022-11-14T09:35:46;6.20;;;4.93;;
9449;SDS011;4763;48.370;10.874;2022-11-14T09:38:34;7.47;;;5.30;;
9449;SDS011;4763;48.370;10.874;2022-11-14T09:41:22;8.60;;;5.70;;
9449;SDS011;4763;48.370;10.874;2022-11-14T09:44:13;14.90;;;5.30;;
9449;SDS011;4763;48.370;10.874;2022-11-14T09:47:19;8.73;;;5.27;;
9449;SDS011;4763;48.370;10.874;2022-11-14T09:50:10;7.03;;;4.73;;
9449;SDS011;4763;48.370;10.874;2022-11-14T09:53:00;5.43;;;4.83;;
9449;SDS011;4763;48.370;10.874;2022-11-14T09:55:53;6.93;;;5.47;;
9449;SDS011;4763;48.370;10.874;2022-11-14T09:58:40;5.70;;;4.40;;
9449;SDS011;4763;48.370;10.874;2022-11-14T10:01:31;5.73;;;4.73;;
9449;SDS011;4763;48.370;10.874;2022-11-14T10:04:29;6.13;;;4.83;;
9449;SDS011;4763;48.370;10.874;2022-11-14T10:07:31;6.53;;;5.13;;
9449;SDS011;4763;48.370;10.874;2022-11-14T10:10:31;5.40;;;4.90;;
9449;SDS011;4763;48.370;10.874;2022-11-14T10:13:38;7.73;;;5.20;;
9449;SDS011;4763;48.370;10.874;2022-11-14T10:16:38;8.47;;;5.00;;
9449;SDS011;4763;48.370;10.874;2022-11-14T10:19:30;5.33;;;4.83;;
9449;SDS011;4763;48.370;10.874;2022-11-14T10:22:30;5.63;;;4.70;;
9449;SDS011;4763;48.370;10.874;2022-11-14T10:25:33;9.27;;;5.30;;
9449;SDS011;4763;48.370;10.874;2022-11-14T10:28:36;9.97;;;5.17;;
9449;SDS011;4763;48.370;10.874;2022-11-14T10:31:35;5.27;;;4.77;;
9449;SDS011;4763;48.370;10.874;2022-11-14T10:34:29;6.47;;;5.10;;
9449;SDS011;4763;48.370;10.874;2022-11-14T10:37:20;6.63;;;5.20;;
9449;SDS011;4763;48.370;10.874;2022-11-14T10:40:13;6.37;;;4.93;;
9449;SDS011;4763;48.370;10.874;2022-11-14T10:43:05;5.87;;;4.63;;
9449;SDS011;4763;48.370;10.874;2022-11-14T10:46:04;6.57;;;4.70;;
9449;SDS011;4763;48.370;10.874;2022-11-14T10:48:56;5.80;;;4.83;;
9449;SDS011;4763;48.370;10.874;2022-11-14T10:51:45;6.30;;;5.13;;
9449;SDS011;4763;48.370;10.874;2022-11-14T10:54:35;8.13;;;4.93;;
9449;SDS011;4763;48.370;10.874;2022-11-14T10:57:27;6.83;;;5.57;;
9449;SDS011;4763;48.370;10.874;2022-11-14T11:00:16;7.20;;;5.57;;
9449;SDS011;4763;48.370;10.874;2022-11-14T11:03:06;5.47;;;4.97;;
9449;SDS011;4763;48.370;10.874;2022-11-14T11:05:54;8.90;;;5.20;;
9449;SDS011;4763;48.370;10.874;2022-11-14T11:08:42;8.93;;;5.60;;
9449;SDS011;4763;48.370;10.874;2022-11-14T11:11:51;6.47;;;5.10;;
9449;SDS011;4763;48.370;10.874;2022-11-14T11:14:41;8.03;;;5.20;;
9449;SDS011;4763;48.370;10.874;2022-11-14T11:17:29;7.30;;;5.30;;
9449;SDS011;4763;48.370;10.874;2022-11-14T11:20:25;5.73;;;5.03;;
9449;SDS011;4763;48.370;10.874;2022-11-14T11:23:17;5.80;;;4.90;;
9449;SDS011;4763;48.370;10.874;2022-11-14T11:26:09;12.13;;;6.30;;
9449;SDS011;4763;48.370;10.874;2022-11-14T11:29:05;6.07;;;4.80;;
9449;SDS011;4763;48.370;10.874;2022-11-14T11:31:59;6.87;;;5.40;;
9449;SDS011;4763;48.370;10.874;2022-11-14T11:34:47;6.00;;;5.20;;
9449;SDS011;4763;48.370;10.874;2022-11-14T11:37:36;7.90;;;5.10;;
9449;SDS011;4763;48.370;10.874;2022-11-14T11:40:27;7.00;;;4.50;;
9449;SDS011;4763;48.370;10.874;2022-11-14T11:43:16;5.50;;;4.30;;
9449;SDS011;4763;48.370;10.874;2022-11-14T11:46:11;7.37;;;5.13;;
9449;SDS011;4763;48.370;10.874;2022-11-14T11:49:04;6.30;;;4.80;;
9449;SDS011;4763;48.370;10.874;2022-11-14T11:52:00;7.23;;;5.37;;
9449;SDS011;4763;48.370;10.874;2022-11-14T11:54:54;6.07;;;4.67;;
9449;SDS011;4763;48.370;10.874;2022-11-14T11:57:46;5.73;;;3.80;;
9449;SDS011;4763;48.370;10.874;2022-11-14T12:00:39;5.23;;;4.20;;
9449;SDS011;4763;48.370;10.874;2022-11-14T12:03:26;6.60;;;4.80;;
9449;SDS011;4763;48.370;10.874;2022-11-14T12:06:14;7.87;;;4.60;;
9449;SDS011;4763;48.370;10.874;2022-11-14T12:09:14;6.40;;;4.33;;
9449;SDS011;4763;48.370;10.874;2022-11-14T12:12:08;4.50;;;3.97;;
9449;SDS011;4763;48.370;10.874;2022-11-14T12:15:03;8.33;;;4.87;;
9449;SDS011;4763;48.370;10.874;2022-11-14T12:18:08;5.60;;;4.10;;
9449;SDS011;4763;48.370;10.874;2022-11-14T12:21:09;4.73;;;4.20;;
9449;SDS011;4763;48.370;10.874;2022-11-14T12:27:20;4.93;;;3.70;;
9449;SDS011;4763;48.370;10.874;2022-11-14T12:30:16;4.10;;;3.43;;
9449;SDS011;4763;48.370;10.874;2022-11-14T12:33:07;5.00;;;3.60;;
9449;SDS011;4763;48.370;10.874;2022-11-14T12:35:57;7.87;;;3.80;;
9449;SDS011;4763;48.370;10.874;2022-11-14T12:38:47;3.57;;;3.10;;
9449;SDS011;4763;48.370;10.874;2022-11-14T12:41:37;3.37;;;2.87;;
9449;SDS011;4763;48.370;10.874;2022-11-14T12:44:34;4.57;;;3.40;;
9449;SDS011;4763;48.370;10.874;2022-11-14T12:47:22;4.10;;;3.63;;
9449;SDS011;4763;48.370;10.874;2022-11-14T12:50:26;3.80;;;3.20;;
9449;SDS011;4763;48.370;10.874;2022-11-14T12:53:38;4.53;;;3.57;;
9449;SDS011;4763;48.370;10.874;2022-11-14T12:59:50;6.87;;;4.37;;
9449;SDS011;4763;48.370;10.874;2022-11-14T13:02:47;8.53;;;4.53;;
9449;SDS011;4763;48.370;10.874;2022-11-14T13:06:02;10.33;;;5.00;;
9449;SDS011;4763;48.370;10.874;2022-11-14T13:09:04;11.60;;;5.57;;
9449;SDS011;4763;48.370;10.874;2022-11-14T13:12:25;8.30;;;4.97;;
9449;SDS011;4763;48.370;10.874;2022-11-14T13:15:33;6.47;;;4.50;;
9449;SDS011;4763;48.370;10.874;2022-11-14T13:18:50;6.53;;;4.83;;
9449;SDS011;4763;48.370;10.874;2022-11-14T13:25:23;9.40;;;4.33;;
9449;SDS011;4763;48.370;10.874;2022-11-14T13:31:47;5.03;;;3.80;;
9449;SDS011;4763;48.370;10.874;2022-11-14T13:34:42;7.60;;;4.20;;
9449;SDS011;4763;48.370;10.874;2022-11-14T13:37:45;4.83;;;3.27;;
9449;SDS011;4763;48.370;10.874;2022-11-14T13:40:49;6.00;;;3.73;;
9449;SDS011;4763;48.370;10.874;2022-11-14T13:43:45;5.23;;;4.27;;
9449;SDS011;4763;48.370;10.874;2022-11-14T13:46:49;4.83;;;3.70;;
9449;SDS011;4763;48.370;10.874;2022-11-14T13:49:57;4.47;;;3.50;;
9449;SDS011;4763;48.370;10.874;2022-11-14T13:52:48;5.63;;;3.23;;
9449;SDS011;4763;48.370;10.874;2022-11-14T13:55:37;6.10;;;3.20;;
9449;SDS011;4763;48.370;10.874;2022-11-14T13:58:41;4.57;;;3.57;;
9449;SDS011;4763;48.370;10.874;2022-11-14T14:01:50;5.57;;;2.83;;
9449;SDS011;4763;48.370;10.874;2022-11-14T14:04:55;4.20;;;3.37;;
9449;SDS011;4763;48.370;10.874;2022-11-14T14:07:56;4.57;;;3.47;;
9449;SDS011;4763;48.370;10.874;2022-11-14T14:10:58;3.97;;;3.13;;
9449;SDS011;4763;48.370;10.874;2022-11-14T14:14:14;5.10;;;3.20;;
9449;SDS011;4763;48.370;10.874;2022-11-14T14:17:18;5.97;;;3.27;;
9449;SDS011;4763;48.370;10.874;2022-11-14T14:20:15;5.77;;;3.93;;
9449;SDS011;4763;48.370;10.874;2022-11-14T14:23:20;3.93;;;3.17;;
9449;SDS011;4763;48.370;10.874;2022-11-14T14:26:19;5.10;;;3.97;;
9449;SDS011;4763;48.370;10.874;2022-11-14T14:29:15;5.70;;;4.00;;
9449;SDS011;4763;48.370;10.874;2022-11-14T14:32:10;5.50;;;3.80;;
9449;SDS011;4763;48.370;10.874;2022-11-14T14:34:59;6.63;;;4.33;;
9449;SDS011;4763;48.370;10.874;2022-11-14T14:38:10;7.20;;;4.23;;
9449;SDS011;4763;48.370;10.874;2022-11-14T14:40:58;6.40;;;4.30;;
9449;SDS011;4763;48.370;10.874;2022-11-14T14:43:49;5.77;;;4.20;;
9449;SDS011;4763;48.370;10.874;2022-11-14T14:46:39;5.43;;;4.33;;
9449;SDS011;4763;48.370;10.874;2022-11-14T14:49:26;4.47;;;4.07;;
9449;SDS011;4763;48.370;10.874;2022-11-14T14:52:20;8.70;;;4.57;;
9449;SDS011;4763;48.370;10.874;2022-11-14T14:55:17;6.43;;;4.10;;
9449;SDS011;4763;48.370;10.874;2022-11-14T14:58:12;8.73;;;4.07;;
9449;SDS011;4763;48.370;10.874;2022-11-14T15:01:01;7.27;;;4.37;;
9449;SDS011;4763;48.370;10.874;2022-11-14T15:03:51;6.70;;;4.30;;
9449;SDS011;4763;48.370;10.874;2022-11-14T15:06:43;5.70;;;4.43;;
9449;SDS011;4763;48.370;10.874;2022-11-14T15:09:33;4.77;;;4.10;;
9449;SDS011;4763;48.370;10.874;2022-11-14T15:12:20;13.43;;;5.60;;
9449;SDS011;4763;48.370;10.874;2022-11-14T15:15:11;5.53;;;4.00;;
9449;SDS011;4763;48.370;10.874;2022-11-14T15:17:58;6.47;;;4.40;;
9449;SDS011;4763;48.370;10.874;2022-11-14T15:21:07;8.63;;;4.60;;
9449;SDS011;4763;48.370;10.874;2022-11-14T15:23:58;6.00;;;3.67;;
9449;SDS011;4763;48.370;10.874;2022-11-14T15:26:48;7.70;;;4.27;;
9449;SDS011;4763;48.370;10.874;2022-11-14T15:29:38;6.30;;;3.97;;
9449;SDS011;4763;48.370;10.874;2022-11-14T15:32:31;7.03;;;4.50;;
9449;SDS011;4763;48.370;10.874;2022-11-14T15:35:29;8.60;;;4.07;;
9449;SDS011;4763;48.370;10.874;2022-11-14T15:38:18;5.27;;;4.03;;
9449;SDS011;4763;48.370;10.874;2022-11-14T15:41:15;4.83;;;3.53;;
9449;SDS011;4763;48.370;10.874;2022-11-14T15:44:26;5.73;;;3.53;;
9449;SDS011;4763;48.370;10.874;2022-11-14T15:47:18;5.70;;;4.07;;
9449;SDS011;4763;48.370;10.874;2022-11-14T15:50:21;6.00;;;4.03;;
9449;SDS011;4763;48.370;10.874;2022-11-14T15:53:16;6.50;;;4.80;;
9449;SDS011;4763;48.370;10.874;2022-11-14T15:56:09;7.60;;;4.80;;
9449;SDS011;4763;48.370;10.874;2022-11-14T15:58:58;6.33;;;4.50;;
9449;SDS011;4763;48.370;10.874;2022-11-14T16:01:47;7.80;;;4.63;;
9449;SDS011;4763;48.370;10.874;2022-11-14T16:04:37;8.63;;;5.30;;
9449;SDS011;4763;48.370;10.874;2022-11-14T16:07:24;9.30;;;5.43;;
9449;SDS011;4763;48.370;10.874;2022-11-14T16:10:12;7.30;;;5.23;;
9449;SDS011;4763;48.370;10.874;2022-11-14T16:13:01;6.27;;;4.43;;
9449;SDS011;4763;48.370;10.874;2022-11-14T16:15:48;6.77;;;4.07;;
9449;SDS011;4763;48.370;10.874;2022-11-14T16:18:36;6.03;;;4.20;;
9449;SDS011;4763;48.370;10.874;2022-11-14T16:21:23;6.13;;;4.70;;
9449;SDS011;4763;48.370;10.874;2022-11-14T16:24:13;8.07;;;5.07;;
9449;SDS011;4763;48.370;10.874;2022-11-14T16:27:02;5.43;;;4.50;;
9449;SDS011;4763;48.370;10.874;2022-11-14T16:29:49;7.83;;;5.57;;
9449;SDS011;4763;48.370;10.874;2022-11-14T16:32:36;9.67;;;4.67;;
9449;SDS011;4763;48.370;10.874;2022-11-14T16:35:25;7.60;;;4.80;;
9449;SDS011;4763;48.370;10.874;2022-11-14T16:38:12;6.13;;;4.30;;
9449;SDS011;4763;48.370;10.874;2022-11-14T16:40:59;8.43;;;5.67;;
9449;SDS011;4763;48.370;10.874;2022-11-14T16:43:46;7.70;;;5.60;;
9449;SDS011;4763;48.370;10.874;2022-11-14T16:46:34;6.90;;;5.30;;
9449;SDS011;4763;48.370;10.874;2022-11-14T16:49:23;15.03;;;8.93;;
9449;SDS011;4763;48.370;10.874;2022-11-14T16:52:12;11.20;;;6.27;;
9449;SDS011;4763;48.370;10.874;2022-11-14T16:55:01;12.70;;;8.87;;
9449;SDS011;4763;48.370;10.874;2022-11-14T16:57:48;16.03;;;9.00;;
9449;SDS011;4763;48.370;10.874;2022-11-14T17:00:35;14.87;;;8.63;;
9449;SDS011;4763;48.370;10.874;2022-11-14T17:03:22;10.70;;;7.83;;
9449;SDS011;4763;48.370;10.874;2022-11-14T17:06:09;57.00;;;20.63;;
9449;SDS011;4763;48.370;10.874;2022-11-14T17:08:58;33.13;;;15.53;;
9449;SDS011;4763;48.370;10.874;2022-11-14T17:11:46;44.47;;;17.50;;
9449;SDS011;4763;48.370;10.874;2022-11-14T17:14:33;41.33;;;16.60;;
9449;SDS011;4763;48.370;10.874;2022-11-14T17:17:20;52.80;;;19.67;;
9449;SDS011;4763;48.370;10.874;2022-11-14T17:20:08;41.33;;;18.97;;
9449;SDS011;4763;48.370;10.874;2022-11-14T17:22:55;44.93;;;18.20;;
9449;SDS011;4763;48.370;10.874;2022-11-14T17:25:44;41.57;;;17.43;;
9449;SDS011;4763;48.370;10.874;2022-11-14T17:28:32;26.50;;;12.17;;
9449;SDS011;4763;48.370;10.874;2022-11-14T17:31:19;22.83;;;10.90;;
9449;SDS011;4763;48.370;10.874;2022-11-14T17:34:07;21.03;;;10.60;;